Terminal Aerodrome Forecast
Issued by NWS Spokane, WA

Home | Current Version | Previous Version | Text Only | Print | Product List | Glossary On
Versions: 1 2 3 4 5 6 7 8 9 10 11 12 13 14 15 16 17 18 19 20 21 22
000
FTUS46 KOTX 242022 AAA
TAFGEG
TAF AMD
KGEG 242022Z 2420/2518 22015G23KT P6SM VCSH SCT015 BKN035
     FM242230 22018G26KT P6SM -SHRA VCTS SCT040CB BKN060
     FM250200 22008KT P6SM BKN060
     FM250900 20005KT P6SM FEW060 BKN150=

USA.gov is the U.S. government's official web portal to all federal, state and local government web resources and services.